Tropical Cyclones
[Index]
Main Index Home Page Stock Weather Photos Extreme Storms Discussion Storm News and Storm Chasing Reports Tropical Cyclones / Hurricanes / Typhoons Weather Data and Links Wild Fires / Bushfires Weather Observation Techniques Weather Picture Catalogue Tornado Pictures and Reports Stock Video Footage and DVDs for sale
Season 1996-1997 Tropical Cyclone GAVIN Track Map
Season 1996-1997 Summaries: [BoM-AU] [JTWC-AU] [JTWC-SIO] [JTWC-SPAC] [JTWC-SH]
<<- Previous TC | JTWC 1996-1997 Season | Next TC ->>

click for intensity scale information  Lat/long Grid: Show Hide

 Date Labels: Show Hide

Joint Typhoon Warning Centre Cyclone Data

Name: GAVIN

02 Mar 1997 00:00 UTC to 13 Mar 1997 00:00 UTC

    date/time    lat    long     hPa   cat  kts
1997-03-02 00    8.3   171.4                  15          
1997-03-02 06    8.5   171.4                  20          
1997-03-02 12    8.7   171.5                  25          
1997-03-02 18    8.9   171.7                  25          
1997-03-03 00    9.1   172.0                  30          
1997-03-03 06    9.3   172.4                  35          
1997-03-03 12    9.5   172.8                  35          
1997-03-03 18    9.6   173.2            1     40          
1997-03-04 00    9.7   173.6            1     45          
1997-03-04 06    9.7   174.1            1     50          
1997-03-04 12    9.7   174.9            2     60          
1997-03-04 18    9.7   175.7            2     70          
1997-03-05 00    9.8   176.7            3     80          
1997-03-05 06   10.1   177.7            3     90          
1997-03-05 12   10.6   178.6            4    100          
1997-03-05 18   11.4   179.2            4    115          
1997-03-06 00   12.3   179.6            4    115          
1997-03-06 06   13.4   179.5            4    115          
1997-03-06 12   14.4   179.1            4    115          
1997-03-06 18   15.5   178.7            4    115          
1997-03-07 00   16.5   178.1            4    110          
1997-03-07 06   17.4   177.2            4    105          
1997-03-07 12   18.0   176.3            4    105          
1997-03-07 18   18.5   175.8            4    100          
1997-03-08 00   19.0   175.6            4    100          
1997-03-08 06   19.5   175.6            4    100          
1997-03-08 12   20.1   176.0            4    115          
1997-03-08 18   21.0   176.7            4    120          
1997-03-09 00   22.3   176.9            4    115          
1997-03-09 06   23.6   177.0            4    110          
1997-03-09 12   24.9   177.0            4    100          
1997-03-09 18   26.2   176.8            3     95          
1997-03-10 00   27.5   176.6            3     90          
1997-03-10 06   28.7   176.5            3     85          
1997-03-10 12   29.9   176.5            3     80          
1997-03-10 18   31.1   176.5            3     75          
1997-03-11 00   32.3   176.5            2     70          
1997-03-11 06   33.3   176.5            2     65          
1997-03-11 12   34.0   177.0            2     60          
1997-03-11 18   34.2   177.9            2     55          
1997-03-12 00   34.4   179.0            1     50          
1997-03-12 06   34.5   179.8W           1     45          
1997-03-12 12   35.1   178.7W           1     40          
1997-03-12 18   36.0   177.7W                 35          
1997-03-13 00   37.0   176.7W                 30          
Winds are 1-min average.

Tropical cyclone tracks developed by Michael Bath using data from the Joint Typhoon Warning Centre Best Tracks and Google Maps.


[Australian Severe Weather index] [Copyright Notice] [Email Contacts] [Search This Site] [Privacy Policy]
Document: tropical_cyclone_gavin.htm Updated: 18 September 2016